Time;durP1;ratioP1;P1;durP2;ratioP2;P2;SDS_P1;SDS_P2;PMS_P1;PMS_P2;Temp;Humidity;BMP_temperature;BMP_pressure;BME280_temperature;BME280_humidity;BME280_pressure;Samples;Min_cycle;Max_cycle;Signal;HPM_P1;HPM_P2
2022/09/28 00:00:56;;;;;;;1.03;0.70;;;8.10;99.90;;;;;;6246330;22;20660;-43
2022/09/28 00:03:21;;;;;;;1.53;0.80;;;8.10;99.90;;;;;;6244610;23;20159;-43
2022/09/28 00:05:47;;;;;;;0.87;0.63;;;8.10;99.90;;;;;;6247456;22;20533;-43
2022/09/28 00:08:12;;;;;;;1.13;0.83;;;8.10;99.90;;;;;;6246549;22;20489;-44
2022/09/28 00:10:39;;;;;;;3.53;1.03;;;8.10;99.90;;;;;;6246095;22;20174;-42
2022/09/28 00:13:06;;;;;;;2.50;0.80;;;8.10;99.90;;;;;;6245167;23;20164;-42
2022/09/28 00:15:32;;;;;;;1.73;0.90;;;8.10;99.90;;;;;;6247173;22;20226;-45
2022/09/28 00:17:57;;;;;;;2.13;0.87;;;8.10;99.90;;;;;;6244529;23;20579;-41
2022/09/28 00:20:23;;;;;;;2.83;1.10;;;8.10;99.90;;;;;;6244623;23;20616;-45
2022/09/28 00:22:49;;;;;;;3.17;1.60;;;8.10;99.90;;;;;;6246633;22;20255;-42
2022/09/28 00:25:15;;;;;;;2.37;1.10;;;8.10;99.90;;;;;;6245998;22;20163;-44
2022/09/28 00:27:42;;;;;;;2.97;1.07;;;8.10;99.90;;;;;;6244573;23;20192;-45
2022/09/28 00:30:08;;;;;;;0.90;0.90;;;8.10;99.90;;;;;;6246419;22;20613;-42
2022/09/28 00:32:34;;;;;;;2.77;1.00;;;8.10;99.90;;;;;;6246081;22;20182;-42
2022/09/28 00:34:59;;;;;;;1.33;1.13;;;8.10;99.90;;;;;;6246376;22;20202;-45
2022/09/28 00:37:25;;;;;;;5.33;1.37;;;8.10;99.90;;;;;;6246296;22;20235;-44
2022/09/28 00:39:51;;;;;;;1.30;0.97;;;8.00;99.90;;;;;;6246259;22;20209;-42
2022/09/28 00:42:19;;;;;;;1.07;1.03;;;8.10;99.90;;;;;;6246191;22;20159;-45
2022/09/28 00:44:48;;;;;;;2.63;1.40;;;8.00;99.90;;;;;;6246463;22;20163;-43
2022/09/28 00:47:19;;;;;;;2.10;1.23;;;8.00;99.90;;;;;;6244390;23;20187;-43
2022/09/28 00:50:04;;;;;;;3.07;1.50;;;8.00;99.90;;;;;;6246575;22;20200;-44
2022/09/28 00:52:39;;;;;;;2.77;1.27;;;8.00;99.90;;;;;;6245986;22;20162;-44
2022/09/28 00:55:10;;;;;;;2.73;1.47;;;8.00;99.90;;;;;;6244511;23;20242;-45
2022/09/28 00:57:39;;;;;;;1.80;1.30;;;8.00;99.90;;;;;;6247978;22;20202;-45
2022/09/28 01:00:06;;;;;;;2.03;1.40;;;8.00;99.90;;;;;;6248259;22;20594;-44
2022/09/28 01:02:32;;;;;;;1.97;1.10;;;8.00;99.90;;;;;;6248200;22;20158;-43
2022/09/28 01:04:59;;;;;;;1.37;1.27;;;8.00;99.90;;;;;;6248076;22;20175;-43
2022/09/28 01:07:25;;;;;;;3.67;1.20;;;7.90;99.90;;;;;;6247636;22;20197;-45
2022/09/28 01:09:52;;;;;;;2.50;1.43;;;8.00;99.90;;;;;;6248424;22;20531;-44
2022/09/28 01:12:18;;;;;;;4.47;1.37;;;8.00;99.90;;;;;;6246375;23;20159;-45
2022/09/28 01:14:45;;;;;;;2.37;1.47;;;7.90;99.90;;;;;;6248215;22;20186;-45
2022/09/28 01:17:21;;;;;;;3.33;1.90;;;8.00;99.90;;;;;;6248202;22;20172;-43
2022/09/28 01:20:16;;;;;;;2.80;1.63;;;8.00;99.90;;;;;;6247940;22;20140;-44
2022/09/28 01:23:00;;;;;;;3.37;2.10;;;8.00;99.90;;;;;;6248971;23;20143;-41
2022/09/28 01:25:53;;;;;;;4.47;2.00;;;7.90;99.90;;;;;;6248952;22;20270;-43
2022/09/28 01:28:24;;;;;;;2.50;1.80;;;8.00;99.90;;;;;;6249161;22;20175;-41
2022/09/28 01:31:11;;;;;;;4.07;1.60;;;8.00;99.90;;;;;;6248857;22;20151;-41
2022/09/28 01:33:48;;;;;;;4.03;2.10;;;7.90;99.90;;;;;;6247208;23;20159;-42
2022/09/28 01:36:25;;;;;;;3.07;1.83;;;7.90;99.90;;;;;;6247151;23;20183;-38
2022/09/28 01:39:00;;;;;;;3.07;1.70;;;7.90;99.90;;;;;;6246608;23;20521;-38
2022/09/28 01:41:32;;;;;;;2.43;1.67;;;7.90;99.90;;;;;;6245933;23;20159;-40
2022/09/28 01:44:01;;;;;;;4.80;1.73;;;7.90;99.90;;;;;;6246619;23;20136;-36
2022/09/28 01:46:40;;;;;;;3.30;1.93;;;7.90;99.90;;;;;;6248027;22;20532;-40
2022/09/28 01:49:23;;;;;;;3.30;1.90;;;7.90;99.90;;;;;;6245811;23;20517;-37
2022/09/28 01:52:20;;;;;;;4.47;1.93;;;7.80;99.90;;;;;;6245991;23;20238;-40
2022/09/28 01:54:58;;;;;;;2.53;2.00;;;7.80;99.90;;;;;;6245679;23;20216;-40
2022/09/28 01:57:57;;;;;;;3.47;2.10;;;7.80;99.90;;;;;;6245893;23;20604;-37
2022/09/28 02:00:26;;;;;;;3.57;1.90;;;7.80;99.90;;;;;;6229027;22;20608;-38
2022/09/28 02:02:56;;;;;;;3.73;2.20;;;7.70;99.90;;;;;;6245791;23;20160;-40
2022/09/28 02:05:32;;;;;;;3.57;2.10;;;7.70;99.90;;;;;;6245899;23;20493;-41
2022/09/28 02:08:09;;;;;;;2.23;2.03;;;7.70;99.90;;;;;;6245660;23;20187;-38
2022/09/28 02:10:52;;;;;;;4.67;2.27;;;7.70;99.90;;;;;;6247608;22;20158;-42
2022/09/28 02:13:38;;;;;;;2.90;2.53;;;7.70;99.90;;;;;;6245774;23;20487;-39
2022/09/28 02:16:42;;;;;;;3.63;2.57;;;7.70;99.90;;;;;;6245558;23;20234;-40
2022/09/28 02:19:42;;;;;;;4.13;2.80;;;7.80;99.90;;;;;;6245896;23;20162;-41
2022/09/28 02:22:24;;;;;;;6.17;2.90;;;7.80;99.90;;;;;;6213171;22;20290;-39
2022/09/28 02:24:56;;;;;;;4.23;3.00;;;7.90;99.90;;;;;;6247513;22;20162;-41
2022/09/28 02:27:40;;;;;;;5.30;2.83;;;7.90;99.90;;;;;;6245413;23;20195;-40
2022/09/28 02:30:07;;;;;;;8.90;2.73;;;7.90;99.90;;;;;;6245472;23;20213;-41
2022/09/28 02:32:42;;;;;;;4.43;2.77;;;8.00;99.90;;;;;;6247204;22;20178;-38
2022/09/28 02:35:21;;;;;;;3.93;3.20;;;8.00;99.90;;;;;;6246184;23;20148;-40
2022/09/28 02:37:48;;;;;;;4.07;3.47;;;8.00;99.90;;;;;;6245764;23;20621;-39
2022/09/28 02:40:17;;;;;;;5.10;3.77;;;8.00;99.90;;;;;;6247389;22;20160;-38
2022/09/28 02:43:06;;;;;;;6.23;3.70;;;8.00;99.90;;;;;;6245132;23;20170;-40
2022/09/28 02:45:53;;;;;;;6.60;3.80;;;8.00;99.90;;;;;;6247832;22;20567;-39
2022/09/28 02:48:38;;;;;;;6.57;3.63;;;8.10;99.90;;;;;;6246774;22;20172;-41
2022/09/28 02:51:38;;;;;;;7.00;4.30;;;8.10;99.90;;;;;;6246896;22;20150;-41
2022/09/28 02:54:13;;;;;;;6.47;4.03;;;8.20;99.90;;;;;;6246862;22;20615;-41
2022/09/28 02:56:54;;;;;;;5.07;3.37;;;8.20;99.90;;;;;;6246943;22;20167;-42
2022/09/28 02:59:47;;;;;;;7.57;4.23;;;8.20;99.90;;;;;;6245234;23;20158;-40
2022/09/28 03:02:44;;;;;;;6.23;4.00;;;8.20;99.90;;;;;;6246982;22;20147;-41
2022/09/28 03:05:28;;;;;;;5.93;4.10;;;8.30;99.90;;;;;;6246676;22;20179;-42
2022/09/28 03:08:19;;;;;;;7.40;4.43;;;8.30;99.90;;;;;;6244907;23;20195;-40
2022/09/28 03:11:04;;;;;;;6.27;3.87;;;8.30;99.90;;;;;;6245833;23;20610;-38
2022/09/28 03:13:30;;;;;;;5.87;4.57;;;8.30;99.90;;;;;;6245073;23;20187;-42
2022/09/28 03:16:11;;;;;;;9.13;4.90;;;8.30;99.90;;;;;;6246299;22;20147;-39
2022/09/28 03:18:40;;;;;;;6.63;5.00;;;8.30;99.90;;;;;;6246486;22;20197;-42
2022/09/28 03:21:08;;;;;;;8.17;4.67;;;8.30;99.90;;;;;;6246450;22;20588;-42
2022/09/28 03:23:37;;;;;;;6.17;4.80;;;8.40;99.90;;;;;;6244854;23;20210;-41
2022/09/28 03:26:09;;;;;;;5.50;4.80;;;8.40;99.90;;;;;;6246373;22;20189;-42
2022/09/28 03:28:35;;;;;;;6.27;4.90;;;8.40;99.90;;;;;;6244783;23;20233;-40
2022/09/28 03:31:01;;;;;;;8.07;5.43;;;8.40;99.90;;;;;;6219785;23;20221;-42
2022/09/28 03:33:27;;;;;;;5.43;4.30;;;8.40;99.90;;;;;;6246807;22;20147;-42
2022/09/28 03:35:52;;;;;;;6.40;5.13;;;8.40;99.90;;;;;;6244781;23;20163;-43
2022/09/28 03:38:19;;;;;;;7.90;4.60;;;8.40;99.90;;;;;;6244730;23;20213;-41
2022/09/28 03:40:55;;;;;;;9.50;4.97;;;8.40;99.90;;;;;;6244901;23;20195;-42
2022/09/28 03:43:21;;;;;;;5.97;5.30;;;8.40;99.90;;;;;;6244664;23;20164;-39
2022/09/28 03:46:02;;;;;;;10.30;5.60;;;8.40;99.90;;;;;;6246284;22;20613;-40
2022/09/28 03:48:36;;;;;;;14.57;5.27;;;8.40;99.90;;;;;;6246708;22;20190;-41
2022/09/28 03:51:07;;;;;;;13.77;5.07;;;8.40;99.90;;;;;;6244541;23;20180;-38
2022/09/28 03:53:35;;;;;;;4.90;4.37;;;8.30;99.90;;;;;;6245686;23;20581;-40
2022/09/28 03:56:07;;;;;;;5.60;4.77;;;8.30;99.90;;;;;;6244536;23;20530;-40
2022/09/28 03:58:49;;;;;;;5.07;4.57;;;8.40;99.90;;;;;;6245888;23;20234;-39
2022/09/28 04:01:15;;;;;;;6.70;4.67;;;8.30;99.90;;;;;;6246967;22;20528;-41
2022/09/28 04:03:42;;;;;;;7.13;4.73;;;8.30;99.90;;;;;;6244332;23;20238;-40
2022/09/28 04:06:13;;;;;;;6.50;3.93;;;8.30;99.90;;;;;;6244428;23;20203;-40
2022/09/28 04:08:39;;;;;;;8.03;4.67;;;8.30;99.90;;;;;;6244489;23;20180;-38
2022/09/28 04:11:06;;;;;;;5.00;4.13;;;8.30;99.90;;;;;;6246276;22;20468;-41
2022/09/28 04:13:32;;;;;;;5.40;4.27;;;8.30;99.90;;;;;;6246126;22;20494;-42
2022/09/28 04:16:00;;;;;;;6.73;4.17;;;8.30;99.90;;;;;;6246051;22;20149;-41
2022/09/28 04:18:26;;;;;;;3.00;2.70;;;8.30;99.90;;;;;;6244326;23;20639;-38
2022/09/28 04:21:09;;;;;;;5.80;3.90;;;8.30;99.90;;;;;;6246205;22;20174;-39
2022/09/28 04:23:48;;;;;;;5.60;4.30;;;8.20;99.90;;;;;;6246224;22;20151;-36
2022/09/28 04:26:19;;;;;;;3.87;3.33;;;8.20;99.90;;;;;;6244248;23;20184;-41
2022/09/28 04:31:35;;;;;;;6.47;3.70;;;8.10;99.90;;;;;;6246110;23;20289;-40
2022/09/28 04:34:02;;;;;;;3.97;3.17;;;8.10;99.90;;;;;;6245928;22;20197;-39
2022/09/28 04:36:28;;;;;;;6.20;4.60;;;8.10;99.90;;;;;;6244250;23;20175;-40
2022/09/28 04:38:53;;;;;;;4.17;3.77;;;8.10;99.90;;;;;;6246143;22;20486;-39
2022/09/28 04:41:24;;;;;;;3.90;3.20;;;8.10;99.90;;;;;;6246177;22;20177;-39
2022/09/28 04:43:49;;;;;;;3.27;2.90;;;8.00;99.90;;;;;;6244289;23;20162;-39
2022/09/28 04:46:15;;;;;;;6.27;3.13;;;8.00;99.90;;;;;;6246091;22;20253;-37
2022/09/28 04:48:42;;;;;;;6.20;3.90;;;8.00;99.90;;;;;;6244204;23;20210;-37
2022/09/28 04:51:07;;;;;;;4.10;3.33;;;8.00;99.90;;;;;;6245835;22;20148;-42
2022/09/28 04:53:34;;;;;;;4.70;3.97;;;7.90;99.90;;;;;;6246075;22;20593;-40
2022/09/28 04:56:05;;;;;;;4.57;3.93;;;7.90;99.90;;;;;;6244420;23;20194;-40
2022/09/28 04:58:34;;;;;;;5.27;3.93;;;7.90;99.90;;;;;;6245717;22;20139;-39
2022/09/28 05:01:02;;;;;;;4.53;3.50;;;7.90;99.90;;;;;;6246138;22;20521;-40
2022/09/28 05:03:28;;;;;;;8.97;4.33;;;7.90;99.90;;;;;;6244196;23;20182;-37
2022/09/28 05:05:53;;;;;;;6.70;4.77;;;7.90;99.90;;;;;;6245484;22;20182;-38
2022/09/28 05:08:19;;;;;;;5.97;4.17;;;7.90;99.90;;;;;;6244124;23;20241;-42
2022/09/28 05:10:45;;;;;;;9.53;6.53;;;7.90;99.90;;;;;;6244191;23;20159;-39
2022/09/28 05:13:13;;;;;;;11.43;8.83;;;7.90;99.90;;;;;;6246222;23;20177;-40
2022/09/28 05:15:40;;;;;;;8.43;4.93;;;7.90;99.90;;;;;;6245584;22;20152;-42
2022/09/28 05:18:06;;;;;;;4.00;3.60;;;7.90;99.90;;;;;;6245874;22;20186;-40
2022/09/28 05:20:33;;;;;;;4.63;4.10;;;7.90;99.90;;;;;;6245633;22;20151;-42
2022/09/28 05:22:59;;;;;;;5.77;4.37;;;7.90;99.90;;;;;;6245730;22;20626;-37
2022/09/28 05:25:25;;;;;;;4.50;4.00;;;7.90;99.90;;;;;;6245831;22;20167;-42
2022/09/28 05:27:55;;;;;;;7.73;3.87;;;7.90;99.90;;;;;;6245417;22;20194;-40
2022/09/28 05:30:22;;;;;;;6.13;3.43;;;7.90;99.90;;;;;;6245733;22;20151;-38
2022/09/28 05:32:49;;;;;;;5.50;3.67;;;8.00;99.90;;;;;;6245535;22;20171;-38
2022/09/28 05:35:16;;;;;;;8.83;3.53;;;8.00;99.90;;;;;;6245655;22;20151;-40
2022/09/28 05:37:42;;;;;;;4.00;3.20;;;7.90;99.90;;;;;;6245696;22;20218;-41
2022/09/28 05:40:08;;;;;;;4.07;3.30;;;7.90;99.90;;;;;;6245643;22;20233;-42
2022/09/28 05:42:34;;;;;;;6.30;4.00;;;8.00;99.90;;;;;;6244079;23;20608;-41
2022/09/28 05:44:59;;;;;;;3.70;2.80;;;7.90;99.90;;;;;;6247199;22;20159;-40
2022/09/28 05:47:26;;;;;;;5.73;3.50;;;7.90;99.90;;;;;;6247127;22;20176;-41
2022/09/28 05:49:52;;;;;;;5.23;3.40;;;7.90;99.90;;;;;;6247711;22;20514;-42
2022/09/28 05:52:19;;;;;;;3.63;3.00;;;7.90;99.90;;;;;;6247732;22;20227;-40
2022/09/28 05:54:54;;;;;;;3.70;2.80;;;7.80;99.90;;;;;;6247614;22;20178;-40
2022/09/28 05:57:20;;;;;;;3.70;3.20;;;7.80;99.90;;;;;;6247535;22;20167;-43
2022/09/28 05:59:46;;;;;;;5.73;3.20;;;7.80;99.90;;;;;;6247370;22;20246;-40
2022/09/28 06:02:12;;;;;;;3.83;2.83;;;7.80;99.90;;;;;;6247892;22;20190;-39
2022/09/28 06:04:41;;;;;;;9.70;3.50;;;7.80;99.90;;;;;;6245589;23;20175;-40
2022/09/28 06:07:07;;;;;;;7.20;3.20;;;7.70;99.90;;;;;;6247085;22;20182;-38
2022/09/28 06:09:33;;;;;;;8.03;3.07;;;7.70;99.90;;;;;;6247154;22;20660;-41
2022/09/28 06:11:58;;;;;;;4.57;3.07;;;7.70;99.90;;;;;;6247268;22;20631;-41
2022/09/28 06:14:26;;;;;;;5.03;3.63;;;7.70;99.90;;;;;;6247461;22;20163;-38
2022/09/28 06:16:51;;;;;;;5.30;3.30;;;7.70;99.90;;;;;;6245050;23;20182;-38
2022/09/28 06:19:17;;;;;;;7.00;3.60;;;7.70;99.90;;;;;;6247630;22;20156;-42
2022/09/28 06:21:43;;;;;;;5.67;3.40;;;7.70;99.90;;;;;;6247081;22;20547;-38
2022/09/28 06:24:11;;;;;;;4.27;3.33;;;7.80;99.90;;;;;;6247451;22;20237;-37
2022/09/28 06:26:37;;;;;;;5.97;3.13;;;7.70;99.90;;;;;;6246980;22;20199;-38
2022/09/28 06:29:03;;;;;;;3.97;2.90;;;7.80;99.90;;;;;;6245374;23;20190;-40
2022/09/28 06:31:30;;;;;;;6.73;3.77;;;7.90;99.90;;;;;;6246961;22;20155;-38
2022/09/28 06:33:56;;;;;;;7.50;3.50;;;7.90;99.90;;;;;;6247169;22;20662;-38
2022/09/28 06:36:22;;;;;;;5.73;3.43;;;7.90;99.90;;;;;;6245308;23;20175;-37
2022/09/28 06:38:52;;;;;;;4.57;3.53;;;8.00;99.90;;;;;;6246984;22;20151;-40
2022/09/28 06:41:18;;;;;;;6.17;3.57;;;8.00;99.90;;;;;;6246763;22;20155;-39
2022/09/28 06:43:45;;;;;;;6.80;3.83;;;8.00;99.90;;;;;;6245229;23;20601;-39
2022/09/28 06:46:20;;;;;;;6.23;4.00;;;8.10;99.90;;;;;;6245281;23;20188;-39
2022/09/28 06:48:46;;;;;;;6.67;3.60;;;8.10;99.90;;;;;;6245275;23;20171;-39
2022/09/28 06:51:15;;;;;;;6.73;3.93;;;8.20;99.90;;;;;;6245114;23;20166;-40
2022/09/28 06:53:44;;;;;;;5.43;4.03;;;8.20;99.90;;;;;;6245261;23;20213;-42
2022/09/28 06:56:11;;;;;;;6.40;4.20;;;8.20;99.90;;;;;;6245134;23;20205;-40
2022/09/28 06:58:38;;;;;;;4.43;3.93;;;8.30;99.90;;;;;;6245136;23;20167;-37
2022/09/28 07:01:06;;;;;;;4.63;3.93;;;8.30;99.90;;;;;;6245171;23;20183;-40
2022/09/28 07:03:31;;;;;;;6.37;4.27;;;8.40;99.90;;;;;;6245106;23;20195;-38
2022/09/28 07:06:22;;;;;;;6.40;4.47;;;8.40;99.90;;;;;;6246635;22;20186;-40
2022/09/28 07:08:49;;;;;;;5.83;4.13;;;8.40;99.90;;;;;;6247104;22;20207;-39
2022/09/28 07:11:15;;;;;;;6.13;4.90;;;8.50;99.90;;;;;;6245045;23;20472;-39
2022/09/28 07:13:41;;;;;;;6.30;3.80;;;8.50;99.90;;;;;;6245252;23;20166;-39
2022/09/28 07:16:07;;;;;;;6.40;4.67;;;8.50;99.90;;;;;;6244996;23;20183;-39
2022/09/28 07:18:33;;;;;;;8.03;5.30;;;8.60;99.90;;;;;;6245048;23;20501;-38
2022/09/28 07:21:01;;;;;;;10.50;4.37;;;8.60;99.90;;;;;;6244958;23;20160;-40
2022/09/28 07:23:52;;;;;;;9.27;4.67;;;8.70;99.90;;;;;;6244965;23;20182;-38
2022/09/28 07:26:18;;;;;;;8.20;4.77;;;8.80;99.90;;;;;;6245486;23;20175;-37
2022/09/28 07:28:43;;;;;;;5.27;4.00;;;8.80;99.90;;;;;;6244819;23;20187;-39
2022/09/28 07:31:09;;;;;;;6.40;3.80;;;8.90;99.90;;;;;;6246373;22;20484;-38
2022/09/28 07:33:36;;;;;;;4.50;3.37;;;8.90;99.90;;;;;;6247187;22;20155;-41
2022/09/28 07:36:05;;;;;;;6.20;3.30;;;9.00;99.90;;;;;;6244671;23;20251;-47
2022/09/28 07:38:32;;;;;;;4.60;3.17;;;9.10;99.90;;;;;;6248792;22;20226;-44
2022/09/28 07:41:13;;;;;;;4.67;3.27;;;9.00;99.90;;;;;;6249070;22;20162;-43
2022/09/28 07:43:39;;;;;;;6.13;3.00;;;9.10;99.90;;;;;;6249129;22;20211;-45
2022/09/28 07:46:16;;;;;;;7.70;3.20;;;9.20;99.90;;;;;;6248759;22;20180;-45
2022/09/28 07:48:44;;;;;;;6.40;3.07;;;9.20;99.90;;;;;;6247627;23;20516;-43
2022/09/28 07:51:10;;;;;;;5.50;2.90;;;9.30;99.90;;;;;;6246776;23;20238;-43
2022/09/28 07:53:37;;;;;;;4.47;2.77;;;9.30;99.90;;;;;;6247079;23;20164;-44
2022/09/28 07:56:05;;;;;;;5.07;2.33;;;9.30;99.90;;;;;;6246793;23;20161;-45
2022/09/28 07:58:33;;;;;;;3.47;2.20;;;9.40;99.90;;;;;;6248320;22;20166;-45
2022/09/28 08:01:03;;;;;;;4.03;2.50;;;9.50;99.90;;;;;;6248539;22;20156;-45
2022/09/28 08:03:29;;;;;;;2.90;2.47;;;9.50;99.90;;;;;;6246900;23;20149;-45
2022/09/28 08:06:03;;;;;;;4.47;2.33;;;9.60;99.90;;;;;;6246432;23;20181;-45
2022/09/28 08:08:30;;;;;;;6.37;2.50;;;9.60;99.90;;;;;;6248763;22;20183;-44
2022/09/28 08:10:57;;;;;;;5.70;2.40;;;9.60;99.90;;;;;;6248696;22;20194;-45
2022/09/28 08:13:24;;;;;;;4.40;2.77;;;9.70;99.90;;;;;;6248595;22;20558;-41
2022/09/28 08:15:54;;;;;;;5.00;2.50;;;9.80;99.90;;;;;;6248345;22;20156;-43
2022/09/28 08:18:20;;;;;;;5.10;2.40;;;9.90;99.90;;;;;;6242251;23;20160;-42
2022/09/28 08:23:30;;;;;;;6.30;2.10;;;10.10;99.90;;;;;;6248994;23;20148;-44
2022/09/28 08:25:56;;;;;;;4.77;2.10;;;10.10;99.90;;;;;;6248714;22;20157;-44
2022/09/28 08:28:23;;;;;;;3.67;2.17;;;10.10;99.90;;;;;;6248411;22;20227;-44
2022/09/28 08:30:49;;;;;;;3.87;2.13;;;10.20;99.90;;;;;;6248176;22;20147;-43
2022/09/28 08:33:16;;;;;;;5.00;2.23;;;10.20;99.90;;;;;;6247872;22;20156;-45
2022/09/28 08:35:43;;;;;;;2.17;1.77;;;10.30;99.90;;;;;;6248175;22;20152;-44
2022/09/28 08:38:09;;;;;;;3.17;2.00;;;10.30;99.90;;;;;;6247730;22;20180;-42
2022/09/28 08:40:57;;;;;;;2.93;1.67;;;10.30;99.90;;;;;;6247683;22;20299;-43
2022/09/28 08:43:44;;;;;;;2.77;1.83;;;10.40;99.90;;;;;;6248951;22;20198;-44
2022/09/28 08:46:15;;;;;;;4.10;1.53;;;10.40;99.90;;;;;;6246428;23;20181;-43
2022/09/28 08:48:55;;;;;;;3.23;1.53;;;10.40;99.90;;;;;;6247608;22;20642;-43
2022/09/28 08:51:33;;;;;;;2.47;1.70;;;10.50;99.90;;;;;;6249367;22;20148;-46
2022/09/28 08:54:30;;;;;;;3.20;1.50;;;10.70;99.90;;;;;;6246786;23;20197;-42
2022/09/28 08:57:09;;;;;;;3.33;1.70;;;10.70;99.90;;;;;;6248069;23;20215;-43
2022/09/28 08:59:41;;;;;;;1.53;1.10;;;10.90;99.90;;;;;;6248883;22;20233;-43
2022/09/28 09:02:36;;;;;;;3.90;1.83;;;11.00;99.90;;;;;;6248268;22;20164;-46
2022/09/28 09:05:09;;;;;;;2.60;1.70;;;11.10;99.90;;;;;;6232656;23;20185;-45
2022/09/28 09:08:17;;;;;;;2.07;1.30;;;11.10;99.90;;;;;;6249964;22;20187;-45
2022/09/28 09:10:46;;;;;;;2.77;1.63;;;11.20;99.90;;;;;;6250187;22;20474;-44
2022/09/28 09:13:43;;;;;;;8.30;1.60;;;11.20;99.90;;;;;;6250836;22;20177;-44
2022/09/28 09:16:36;;;;;;;1.63;1.20;;;11.30;99.90;;;;;;6248007;23;20205;-45
2022/09/28 09:19:16;;;;;;;2.23;1.33;;;11.30;99.90;;;;;;6252715;22;20155;-44
2022/09/28 09:21:56;;;;;;;5.07;1.20;;;11.40;99.90;;;;;;6250071;23;20209;-43
2022/09/28 09:24:31;;;;;;;2.07;1.30;;;11.60;99.90;;;;;;6251547;22;20139;-45
2022/09/28 09:27:28;;;;;;;5.53;1.17;;;11.70;99.90;;;;;;6248813;23;20183;-43
2022/09/28 09:30:25;;;;;;;4.30;1.53;;;11.70;99.90;;;;;;6193488;23;20246;-44
2022/09/28 09:33:23;;;;;;;3.03;1.20;;;11.70;99.90;;;;;;6247213;23;20573;-44
2022/09/28 09:35:59;;;;;;;1.70;1.37;;;11.80;99.90;;;;;;6248011;23;20625;-45
2022/09/28 09:38:34;;;;;;;4.23;1.40;;;11.80;99.90;;;;;;6250885;22;20162;-43
2022/09/28 09:41:22;;;;;;;2.33;1.50;;;11.90;99.90;;;;;;6250040;22;20140;-43
2022/09/28 09:44:23;;;;;;;4.13;0.93;;;11.90;99.90;;;;;;6251228;22;20182;-42
2022/09/28 09:47:08;;;;;;;2.07;1.00;;;12.00;99.90;;;;;;6231568;23;20187;-43
2022/09/28 09:49:39;;;;;;;5.67;1.00;;;12.20;99.90;;;;;;6253228;22;20321;-46
2022/09/28 09:52:22;;;;;;;0.70;0.60;;;12.40;99.90;;;;;;6252431;22;20150;-43
2022/09/28 09:55:06;;;;;;;1.00;0.90;;;12.50;99.90;;;;;;6252156;23;20202;-44
2022/09/28 09:57:40;;;;;;;1.43;0.77;;;12.60;99.90;;;;;;6254323;22;20206;-44
2022/09/28 10:00:14;;;;;;;1.77;1.00;;;12.70;99.90;;;;;;6252339;23;20520;-44
2022/09/28 10:02:48;;;;;;;3.43;1.00;;;12.80;99.90;;;;;;6253120;22;20147;-46
2022/09/28 10:05:21;;;;;;;3.50;1.10;;;12.90;99.90;;;;;;6250421;23;20523;-46
2022/09/28 10:11:21;;;;;;;7.40;1.23;;;12.90;99.90;;;;;;6252245;23;20143;-45
2022/09/28 10:13:48;;;;;;;1.27;0.90;;;13.00;99.90;;;;;;6252188;22;20136;-44
2022/09/28 10:16:16;;;;;;;2.77;1.10;;;12.90;99.90;;;;;;6224913;23;20634;-45
2022/09/28 10:18:42;;;;;;;4.53;1.00;;;13.00;99.90;;;;;;6252485;22;20172;-46
2022/09/28 10:21:19;;;;;;;2.40;1.13;;;13.00;99.90;;;;;;6250921;23;20213;-44
2022/09/28 10:23:53;;;;;;;1.20;1.00;;;13.00;99.90;;;;;;6250690;23;20159;-44
2022/09/28 10:26:28;;;;;;;2.73;1.10;;;13.10;99.90;;;;;;6252930;22;20171;-43
2022/09/28 10:29:00;;;;;;;3.10;1.23;;;13.20;99.90;;;;;;6251464;22;20624;-45
2022/09/28 10:31:47;;;;;;;1.83;1.20;;;13.40;99.90;;;;;;6252479;22;20159;-46
2022/09/28 10:34:17;;;;;;;11.47;3.30;;;13.50;99.90;;;;;;6251711;22;20195;-46
2022/09/28 10:36:57;;;;;;;15.13;5.87;;;13.50;99.90;;;;;;6249866;23;20171;-43
2022/09/28 10:39:54;;;;;;;5.13;1.60;;;13.50;99.90;;;;;;6251413;22;20144;-44
2022/09/28 10:42:24;;;;;;;1.90;1.37;;;13.50;99.90;;;;;;6232514;22;20210;-47
2022/09/28 10:45:05;;;;;;;3.93;1.33;;;13.60;99.90;;;;;;6251041;22;20140;-46
2022/09/28 10:47:34;;;;;;;3.57;0.90;;;13.60;99.90;;;;;;6251825;22;20501;-45
2022/09/28 10:50:00;;;;;;;2.37;1.17;;;13.60;99.90;;;;;;6251080;22;20152;-44
2022/09/28 10:52:32;;;;;;;7.20;1.50;;;13.50;99.90;;;;;;6249414;23;20239;-44
2022/09/28 10:54:58;;;;;;;2.67;1.43;;;13.50;99.90;;;;;;6251110;22;20562;-47
2022/09/28 10:57:35;;;;;;;5.47;1.40;;;13.60;99.90;;;;;;6251406;22;20183;-46
2022/09/28 11:00:06;;;;;;;1.20;1.10;;;13.60;99.90;;;;;;6250876;23;20557;-46
2022/09/28 11:02:35;;;;;;;2.40;1.27;;;13.60;99.90;;;;;;6251049;22;20168;-43
2022/09/28 11:05:03;;;;;;;2.37;1.10;;;13.80;99.90;;;;;;6251395;22;20167;-45
2022/09/28 11:07:32;;;;;;;3.43;1.20;;;14.00;99.90;;;;;;6252129;22;20175;-46
2022/09/28 11:10:26;;;;;;;4.37;0.90;;;14.00;99.90;;;;;;6252933;22;20222;-45
2022/09/28 11:12:53;;;;;;;2.33;0.90;;;14.00;99.90;;;;;;6250719;23;20151;-43
2022/09/28 11:15:23;;;;;;;3.77;1.10;;;14.10;99.90;;;;;;6252026;22;20225;-45
2022/09/28 11:17:52;;;;;;;1.93;0.70;;;14.10;99.90;;;;;;6252257;22;20176;-45
2022/09/28 11:20:33;;;;;;;2.17;0.87;;;14.10;99.90;;;;;;6252276;22;20159;-46
2022/09/28 11:23:22;;;;;;;1.90;0.93;;;14.10;99.90;;;;;;6250347;23;20151;-46
2022/09/28 11:26:05;;;;;;;3.40;0.90;;;14.10;99.90;;;;;;6225680;23;20152;-43
2022/09/28 11:28:34;;;;;;;2.03;0.70;;;14.00;99.90;;;;;;6252483;22;20582;-46
2022/09/28 11:31:01;;;;;;;1.63;0.70;;;14.00;99.90;;;;;;6251883;22;20158;-46
2022/09/28 11:33:46;;;;;;;4.63;0.77;;;14.00;99.90;;;;;;6251671;22;20175;-46
2022/09/28 11:36:12;;;;;;;2.40;0.70;;;14.00;99.90;;;;;;6252448;22;20171;-44
2022/09/28 11:39:08;;;;;;;1.27;0.60;;;14.00;99.90;;;;;;6251834;22;20158;-45
2022/09/28 11:42:10;;;;;;;1.83;0.70;;;14.00;99.90;;;;;;6252051;22;20574;-45
2022/09/28 11:44:43;;;;;;;1.50;0.83;;;14.00;99.90;;;;;;6200699;22;20167;-45
2022/09/28 11:47:27;;;;;;;1.33;0.70;;;14.10;99.90;;;;;;6251637;22;20176;-44
2022/09/28 11:50:01;;;;;;;0.80;0.53;;;14.20;99.90;;;;;;6251398;22;20171;-46
2022/09/28 11:56:04;;;;;;;2.23;0.83;;;14.30;99.90;;;;;;6250399;22;20195;-45
2022/09/28 11:58:43;;;;;;;2.33;0.77;;;14.30;99.90;;;;;;6216643;23;20140;-40
2022/09/28 12:01:16;;;;;;;2.77;0.77;;;14.40;99.90;;;;;;6216152;23;20218;-41
2022/09/28 12:03:47;;;;;;;1.33;0.63;;;14.40;99.90;;;;;;6216337;23;20157;-41
2022/09/28 12:06:25;;;;;;;5.33;0.80;;;14.40;99.90;;;;;;6216117;23;20184;-39
2022/09/28 12:09:02;;;;;;;1.47;0.73;;;14.40;99.90;;;;;;6216376;23;20186;-40
2022/09/28 12:11:36;;;;;;;3.47;0.80;;;14.30;99.90;;;;;;6214438;23;20155;-42
2022/09/28 12:14:04;;;;;;;2.83;0.80;;;14.30;99.90;;;;;;6216639;23;20152;-42
2022/09/28 12:16:45;;;;;;;1.67;0.70;;;14.10;99.90;;;;;;6215872;23;20172;-39
2022/09/28 12:19:17;;;;;;;1.23;0.70;;;14.10;99.90;;;;;;6216527;23;20136;-41
2022/09/28 12:21:51;;;;;;;1.87;0.80;;;14.00;99.90;;;;;;6215757;23;20144;-40
2022/09/28 12:24:25;;;;;;;1.17;0.70;;;13.90;99.90;;;;;;6214400;23;20164;-41
2022/09/28 12:27:09;;;;;;;1.97;1.03;;;13.90;99.90;;;;;;6216090;23;20172;-39
2022/09/28 12:29:46;;;;;;;2.47;0.83;;;13.90;99.90;;;;;;6216998;23;20180;-41
2022/09/28 12:32:49;;;;;;;2.70;0.80;;;13.90;99.90;;;;;;6215857;23;20140;-41
2022/09/28 12:35:30;;;;;;;1.23;0.70;;;14.00;99.90;;;;;;6211266;23;20168;-39
2022/09/28 12:37:59;;;;;;;1.33;0.50;;;14.10;99.90;;;;;;6215732;23;20176;-41
2022/09/28 12:40:57;;;;;;;2.27;0.60;;;14.40;99.90;;;;;;6215566;23;20160;-40
2022/09/28 12:43:38;;;;;;;3.30;0.73;;;14.70;99.90;;;;;;6216438;23;20174;-42
2022/09/28 12:46:28;;;;;;;1.97;0.87;;;15.00;99.90;;;;;;6216146;23;20148;-38
2022/09/28 12:49:04;;;;;;;1.60;1.00;;;15.20;99.90;;;;;;6215539;23;20168;-43
2022/09/28 12:51:51;;;;;;;1.43;0.57;;;15.30;99.90;;;;;;6215911;23;20223;-40
2022/09/28 12:54:25;;;;;;;2.33;0.90;;;15.50;99.90;;;;;;6217849;23;20163;-40
2022/09/28 12:57:28;;;;;;;2.20;0.80;;;15.50;99.90;;;;;;6217935;23;20197;-39
2022/09/28 13:00:12;;;;;;;1.63;1.00;;;15.40;99.90;;;;;;6217720;23;20224;-41
2022/09/28 13:02:58;;;;;;;1.87;0.73;;;15.30;99.90;;;;;;6218328;23;20145;-41
2022/09/28 13:06:04;;;;;;;6.07;1.20;;;15.10;99.90;;;;;;6217914;23;20156;-41
2022/09/28 13:08:35;;;;;;;1.07;0.60;;;15.20;99.90;;;;;;6217605;23;20178;-40
2022/09/28 13:11:32;;;;;;;1.50;0.70;;;15.10;99.90;;;;;;6217509;23;20168;-42
2022/09/28 13:14:09;;;;;;;1.17;0.67;;;15.00;99.90;;;;;;6217346;23;20149;-40
2022/09/28 13:16:53;;;;;;;1.27;0.70;;;15.00;99.90;;;;;;6216725;23;20183;-39
2022/09/28 13:19:45;;;;;;;3.13;0.70;;;14.90;99.90;;;;;;6217759;23;20168;-39
2022/09/28 13:22:49;;;;;;;4.80;0.90;;;15.00;99.90;;;;;;6217719;23;20152;-40
2022/09/28 13:25:19;;;;;;;0.73;0.60;;;15.00;99.90;;;;;;6215778;23;20152;-39
2022/09/28 13:27:55;;;;;;;3.40;0.70;;;14.90;99.90;;;;;;6217456;23;20559;-39
2022/09/28 13:30:21;;;;;;;2.00;0.80;;;15.00;99.90;;;;;;6217651;23;20136;-39
2022/09/28 13:32:48;;;;;;;2.67;0.97;;;14.90;99.90;;;;;;6217603;23;20152;-40
2022/09/28 13:35:19;;;;;;;1.67;0.80;;;14.80;99.90;;;;;;6217456;23;20160;-41
2022/09/28 13:37:46;;;;;;;1.83;0.67;;;14.70;99.90;;;;;;6217280;23;20486;-43
2022/09/28 13:40:12;;;;;;;1.37;0.80;;;14.30;99.90;;;;;;6217241;23;20471;-42